sensor_id;sensor_type;location;lat;lon;timestamp;temperature;humidity
14016;DHT22;7083;48.854;9.158;2024-01-07T00:01:48;4.80;99.90
14016;DHT22;7083;48.854;9.158;2024-01-07T00:04:18;4.70;99.90
14016;DHT22;7083;48.854;9.158;2024-01-07T00:06:46;4.70;99.90
14016;DHT22;7083;48.854;9.158;2024-01-07T00:09:13;4.70;99.90
14016;DHT22;7083;48.854;9.158;2024-01-07T00:11:40;4.70;99.90
14016;DHT22;7083;48.854;9.158;2024-01-07T00:14:06;4.70;99.90
14016;DHT22;7083;48.854;9.158;2024-01-07T00:16:33;4.70;99.90
14016;DHT22;7083;48.854;9.158;2024-01-07T00:19:00;4.70;99.90
14016;DHT22;7083;48.854;9.158;2024-01-07T00:21:28;4.80;99.90
14016;DHT22;7083;48.854;9.158;2024-01-07T00:23:58;4.80;99.90
14016;DHT22;7083;48.854;9.158;2024-01-07T00:26:24;4.80;99.90
14016;DHT22;7083;48.854;9.158;2024-01-07T00:28:53;4.80;99.90
14016;DHT22;7083;48.854;9.158;2024-01-07T00:31:20;4.80;99.90
14016;DHT22;7083;48.854;9.158;2024-01-07T00:33:47;4.80;99.90
14016;DHT22;7083;48.854;9.158;2024-01-07T00:36:13;4.80;99.90
14016;DHT22;7083;48.854;9.158;2024-01-07T00:38:41;4.80;99.90
14016;DHT22;7083;48.854;9.158;2024-01-07T00:41:08;4.80;99.90
14016;DHT22;7083;48.854;9.158;2024-01-07T00:43:35;4.80;99.90
14016;DHT22;7083;48.854;9.158;2024-01-07T00:46:14;4.80;99.90
14016;DHT22;7083;48.854;9.158;2024-01-07T00:48:41;4.80;99.90
14016;DHT22;7083;48.854;9.158;2024-01-07T00:51:07;4.90;99.90
14016;DHT22;7083;48.854;9.158;2024-01-07T00:53:35;4.80;99.90
14016;DHT22;7083;48.854;9.158;2024-01-07T00:56:03;4.80;99.90
14016;DHT22;7083;48.854;9.158;2024-01-07T00:58:30;4.90;99.90
14016;DHT22;7083;48.854;9.158;2024-01-07T01:00:57;4.90;99.90
14016;DHT22;7083;48.854;9.158;2024-01-07T01:03:25;4.80;99.90
14016;DHT22;7083;48.854;9.158;2024-01-07T01:05:52;4.90;99.90
14016;DHT22;7083;48.854;9.158;2024-01-07T01:08:19;4.80;99.90
14016;DHT22;7083;48.854;9.158;2024-01-07T01:10:45;5.00;99.90
14016;DHT22;7083;48.854;9.158;2024-01-07T01:13:13;4.90;99.90
14016;DHT22;7083;48.854;9.158;2024-01-07T01:15:40;4.90;99.90
14016;DHT22;7083;48.854;9.158;2024-01-07T01:18:07;4.90;99.90
14016;DHT22;7083;48.854;9.158;2024-01-07T01:20:34;4.90;99.90
14016;DHT22;7083;48.854;9.158;2024-01-07T01:23:00;4.90;99.90
14016;DHT22;7083;48.854;9.158;2024-01-07T01:25:27;4.90;99.90
14016;DHT22;7083;48.854;9.158;2024-01-07T01:27:55;4.90;99.90
14016;DHT22;7083;48.854;9.158;2024-01-07T01:30:23;4.80;99.90
14016;DHT22;7083;48.854;9.158;2024-01-07T01:32:50;4.80;99.90
14016;DHT22;7083;48.854;9.158;2024-01-07T01:35:16;4.80;99.90
14016;DHT22;7083;48.854;9.158;2024-01-07T01:37:43;4.80;99.90
14016;DHT22;7083;48.854;9.158;2024-01-07T01:40:11;4.80;99.90
14016;DHT22;7083;48.854;9.158;2024-01-07T01:42:38;4.80;99.90
14016;DHT22;7083;48.854;9.158;2024-01-07T01:45:05;4.80;99.90
14016;DHT22;7083;48.854;9.158;2024-01-07T01:47:33;4.80;99.90
14016;DHT22;7083;48.854;9.158;2024-01-07T01:50:00;4.80;99.90
14016;DHT22;7083;48.854;9.158;2024-01-07T01:52:27;4.80;99.90
14016;DHT22;7083;48.854;9.158;2024-01-07T01:54:54;4.80;99.90
14016;DHT22;7083;48.854;9.158;2024-01-07T01:57:22;4.80;99.90
14016;DHT22;7083;48.854;9.158;2024-01-07T01:59:51;4.80;99.90
14016;DHT22;7083;48.854;9.158;2024-01-07T02:02:18;4.80;99.90
14016;DHT22;7083;48.854;9.158;2024-01-07T02:04:47;4.70;99.90
14016;DHT22;7083;48.854;9.158;2024-01-07T02:07:13;4.70;99.90
14016;DHT22;7083;48.854;9.158;2024-01-07T02:09:40;4.70;99.90
14016;DHT22;7083;48.854;9.158;2024-01-07T02:12:07;4.70;99.90
14016;DHT22;7083;48.854;9.158;2024-01-07T02:14:37;4.70;99.90
14016;DHT22;7083;48.854;9.158;2024-01-07T02:17:04;4.70;99.90
14016;DHT22;7083;48.854;9.158;2024-01-07T02:19:30;4.70;99.90
14016;DHT22;7083;48.854;9.158;2024-01-07T02:21:58;4.70;99.90
14016;DHT22;7083;48.854;9.158;2024-01-07T02:24:27;4.70;99.90
14016;DHT22;7083;48.854;9.158;2024-01-07T02:26:53;4.70;99.90
14016;DHT22;7083;48.854;9.158;2024-01-07T02:29:20;4.70;99.90
14016;DHT22;7083;48.854;9.158;2024-01-07T02:31:47;4.70;99.90
14016;DHT22;7083;48.854;9.158;2024-01-07T02:34:13;4.70;99.90
14016;DHT22;7083;48.854;9.158;2024-01-07T02:36:40;4.60;99.90
14016;DHT22;7083;48.854;9.158;2024-01-07T02:39:07;4.70;99.90
14016;DHT22;7083;48.854;9.158;2024-01-07T02:41:35;4.70;99.90
14016;DHT22;7083;48.854;9.158;2024-01-07T02:44:02;4.70;99.90
14016;DHT22;7083;48.854;9.158;2024-01-07T02:46:28;4.70;99.90
14016;DHT22;7083;48.854;9.158;2024-01-07T02:48:55;4.60;99.90
14016;DHT22;7083;48.854;9.158;2024-01-07T02:51:22;4.60;99.90
14016;DHT22;7083;48.854;9.158;2024-01-07T02:53:48;4.70;99.90
14016;DHT22;7083;48.854;9.158;2024-01-07T02:56:15;4.60;99.90
14016;DHT22;7083;48.854;9.158;2024-01-07T02:58:43;4.60;99.90
14016;DHT22;7083;48.854;9.158;2024-01-07T03:01:10;4.60;99.90
14016;DHT22;7083;48.854;9.158;2024-01-07T03:03:37;4.60;99.90
14016;DHT22;7083;48.854;9.158;2024-01-07T03:06:04;4.60;99.90
14016;DHT22;7083;48.854;9.158;2024-01-07T03:08:31;4.60;99.90
14016;DHT22;7083;48.854;9.158;2024-01-07T03:10:58;4.60;99.90
14016;DHT22;7083;48.854;9.158;2024-01-07T03:13:24;4.60;99.90
14016;DHT22;7083;48.854;9.158;2024-01-07T03:15:52;4.60;99.90
14016;DHT22;7083;48.854;9.158;2024-01-07T03:18:19;4.60;99.90
14016;DHT22;7083;48.854;9.158;2024-01-07T03:20:46;4.60;99.90
14016;DHT22;7083;48.854;9.158;2024-01-07T03:23:12;4.60;99.90
14016;DHT22;7083;48.854;9.158;2024-01-07T03:25:38;4.60;99.90
14016;DHT22;7083;48.854;9.158;2024-01-07T03:28:05;4.60;99.90
14016;DHT22;7083;48.854;9.158;2024-01-07T03:30:32;4.60;99.90
14016;DHT22;7083;48.854;9.158;2024-01-07T03:33:00;4.60;99.90
14016;DHT22;7083;48.854;9.158;2024-01-07T03:35:27;4.60;99.90
14016;DHT22;7083;48.854;9.158;2024-01-07T03:37:54;4.60;99.90
14016;DHT22;7083;48.854;9.158;2024-01-07T03:40:21;4.60;99.90
14016;DHT22;7083;48.854;9.158;2024-01-07T03:42:47;4.60;99.90
14016;DHT22;7083;48.854;9.158;2024-01-07T03:45:14;4.60;99.90
14016;DHT22;7083;48.854;9.158;2024-01-07T03:47:41;4.60;99.90
14016;DHT22;7083;48.854;9.158;2024-01-07T03:50:09;4.60;99.90
14016;DHT22;7083;48.854;9.158;2024-01-07T03:52:36;4.50;99.90
14016;DHT22;7083;48.854;9.158;2024-01-07T03:55:03;4.50;99.90
14016;DHT22;7083;48.854;9.158;2024-01-07T03:57:30;4.50;99.90
14016;DHT22;7083;48.854;9.158;2024-01-07T03:59:58;4.40;99.90
14016;DHT22;7083;48.854;9.158;2024-01-07T04:02:25;4.40;99.90
14016;DHT22;7083;48.854;9.158;2024-01-07T04:04:52;4.30;99.90
14016;DHT22;7083;48.854;9.158;2024-01-07T04:07:20;4.30;99.90
14016;DHT22;7083;48.854;9.158;2024-01-07T04:09:46;4.30;99.90
14016;DHT22;7083;48.854;9.158;2024-01-07T04:12:13;4.30;99.90
14016;DHT22;7083;48.854;9.158;2024-01-07T04:14:40;4.20;99.90
14016;DHT22;7083;48.854;9.158;2024-01-07T04:17:06;4.20;99.90
14016;DHT22;7083;48.854;9.158;2024-01-07T04:19:36;4.20;99.90
14016;DHT22;7083;48.854;9.158;2024-01-07T04:22:03;4.20;99.90
14016;DHT22;7083;48.854;9.158;2024-01-07T04:24:31;4.20;99.90
14016;DHT22;7083;48.854;9.158;2024-01-07T04:26:58;4.20;99.90
14016;DHT22;7083;48.854;9.158;2024-01-07T04:29:24;4.20;99.90
14016;DHT22;7083;48.854;9.158;2024-01-07T04:31:51;4.10;99.90
14016;DHT22;7083;48.854;9.158;2024-01-07T04:34:18;4.20;99.90
14016;DHT22;7083;48.854;9.158;2024-01-07T04:36:44;4.20;99.90
14016;DHT22;7083;48.854;9.158;2024-01-07T04:39:11;4.20;99.90
14016;DHT22;7083;48.854;9.158;2024-01-07T04:41:39;4.20;99.90
14016;DHT22;7083;48.854;9.158;2024-01-07T04:44:06;4.20;99.90
14016;DHT22;7083;48.854;9.158;2024-01-07T04:46:34;4.20;99.90
14016;DHT22;7083;48.854;9.158;2024-01-07T04:49:01;4.20;99.90
14016;DHT22;7083;48.854;9.158;2024-01-07T04:51:28;4.20;99.90
14016;DHT22;7083;48.854;9.158;2024-01-07T04:53:54;4.20;99.90
14016;DHT22;7083;48.854;9.158;2024-01-07T04:56:21;4.20;99.90
14016;DHT22;7083;48.854;9.158;2024-01-07T04:58:49;4.20;99.90
14016;DHT22;7083;48.854;9.158;2024-01-07T05:01:16;4.20;99.90
14016;DHT22;7083;48.854;9.158;2024-01-07T05:03:42;4.20;99.90
14016;DHT22;7083;48.854;9.158;2024-01-07T05:06:09;4.10;99.90
14016;DHT22;7083;48.854;9.158;2024-01-07T05:08:36;4.10;99.90
14016;DHT22;7083;48.854;9.158;2024-01-07T05:11:03;4.20;99.90
14016;DHT22;7083;48.854;9.158;2024-01-07T05:13:30;4.20;99.90
14016;DHT22;7083;48.854;9.158;2024-01-07T05:15:58;4.10;99.90
14016;DHT22;7083;48.854;9.158;2024-01-07T05:18:25;4.20;99.90
14016;DHT22;7083;48.854;9.158;2024-01-07T05:20:52;4.10;99.90
14016;DHT22;7083;48.854;9.158;2024-01-07T05:23:19;4.10;99.90
14016;DHT22;7083;48.854;9.158;2024-01-07T05:25:46;4.10;99.90
14016;DHT22;7083;48.854;9.158;2024-01-07T05:28:13;4.10;99.90
14016;DHT22;7083;48.854;9.158;2024-01-07T05:30:43;4.10;99.90
14016;DHT22;7083;48.854;9.158;2024-01-07T05:33:11;4.10;99.90
14016;DHT22;7083;48.854;9.158;2024-01-07T05:35:38;4.10;99.90
14016;DHT22;7083;48.854;9.158;2024-01-07T05:38:04;4.10;99.90
14016;DHT22;7083;48.854;9.158;2024-01-07T05:40:31;4.20;99.90
14016;DHT22;7083;48.854;9.158;2024-01-07T05:42:58;4.10;99.90
14016;DHT22;7083;48.854;9.158;2024-01-07T05:45:24;4.10;99.90
14016;DHT22;7083;48.854;9.158;2024-01-07T05:47:51;4.10;99.90
14016;DHT22;7083;48.854;9.158;2024-01-07T05:50:19;4.10;99.90
14016;DHT22;7083;48.854;9.158;2024-01-07T05:52:46;4.10;99.90
14016;DHT22;7083;48.854;9.158;2024-01-07T05:55:12;4.10;99.90
14016;DHT22;7083;48.854;9.158;2024-01-07T05:57:39;4.10;99.90
14016;DHT22;7083;48.854;9.158;2024-01-07T06:00:07;4.10;99.90
14016;DHT22;7083;48.854;9.158;2024-01-07T06:02:34;4.10;99.90
14016;DHT22;7083;48.854;9.158;2024-01-07T06:05:02;4.10;99.90
14016;DHT22;7083;48.854;9.158;2024-01-07T06:07:30;4.00;99.90
14016;DHT22;7083;48.854;9.158;2024-01-07T06:09:56;4.00;99.90
14016;DHT22;7083;48.854;9.158;2024-01-07T06:12:23;4.10;99.90
14016;DHT22;7083;48.854;9.158;2024-01-07T06:14:50;4.00;99.90
14016;DHT22;7083;48.854;9.158;2024-01-07T06:17:16;4.10;99.90
14016;DHT22;7083;48.854;9.158;2024-01-07T06:19:43;4.00;99.90
14016;DHT22;7083;48.854;9.158;2024-01-07T06:22:10;4.00;99.90
14016;DHT22;7083;48.854;9.158;2024-01-07T06:24:38;4.00;99.90
14016;DHT22;7083;48.854;9.158;2024-01-07T06:27:05;4.00;99.90
14016;DHT22;7083;48.854;9.158;2024-01-07T06:29:31;4.00;99.90
14016;DHT22;7083;48.854;9.158;2024-01-07T06:31:59;4.00;99.90
14016;DHT22;7083;48.854;9.158;2024-01-07T06:34:25;4.00;99.90
14016;DHT22;7083;48.854;9.158;2024-01-07T06:36:52;3.90;99.90
14016;DHT22;7083;48.854;9.158;2024-01-07T06:39:19;3.90;99.90
14016;DHT22;7083;48.854;9.158;2024-01-07T06:41:47;3.90;99.90
14016;DHT22;7083;48.854;9.158;2024-01-07T06:44:13;3.90;99.90
14016;DHT22;7083;48.854;9.158;2024-01-07T06:46:40;3.90;99.90
14016;DHT22;7083;48.854;9.158;2024-01-07T06:49:07;3.80;99.90
14016;DHT22;7083;48.854;9.158;2024-01-07T06:51:34;3.80;99.90
14016;DHT22;7083;48.854;9.158;2024-01-07T06:54:00;3.80;99.90
14016;DHT22;7083;48.854;9.158;2024-01-07T06:56:27;3.80;99.90
14016;DHT22;7083;48.854;9.158;2024-01-07T06:58:55;3.70;99.90
14016;DHT22;7083;48.854;9.158;2024-01-07T07:01:22;3.70;99.90
14016;DHT22;7083;48.854;9.158;2024-01-07T07:03:49;3.70;99.90
14016;DHT22;7083;48.854;9.158;2024-01-07T07:06:16;3.70;99.90
14016;DHT22;7083;48.854;9.158;2024-01-07T07:08:43;3.70;99.90
14016;DHT22;7083;48.854;9.158;2024-01-07T07:11:10;3.70;99.90
14016;DHT22;7083;48.854;9.158;2024-01-07T07:13:36;3.60;99.90
14016;DHT22;7083;48.854;9.158;2024-01-07T07:16:06;3.60;99.90
14016;DHT22;7083;48.854;9.158;2024-01-07T07:18:33;3.50;99.90
14016;DHT22;7083;48.854;9.158;2024-01-07T07:21:00;3.50;99.90
14016;DHT22;7083;48.854;9.158;2024-01-07T07:23:27;3.40;99.90
14016;DHT22;7083;48.854;9.158;2024-01-07T07:25:53;3.40;99.90
14016;DHT22;7083;48.854;9.158;2024-01-07T07:28:20;3.40;99.90
14016;DHT22;7083;48.854;9.158;2024-01-07T07:30:47;3.40;99.90
14016;DHT22;7083;48.854;9.158;2024-01-07T07:33:15;3.40;99.90
14016;DHT22;7083;48.854;9.158;2024-01-07T07:35:42;3.40;99.90
14016;DHT22;7083;48.854;9.158;2024-01-07T07:38:09;3.40;99.90
14016;DHT22;7083;48.854;9.158;2024-01-07T07:40:35;3.40;99.90
14016;DHT22;7083;48.854;9.158;2024-01-07T07:43:02;3.40;99.90
14016;DHT22;7083;48.854;9.158;2024-01-07T07:45:29;3.40;99.90
14016;DHT22;7083;48.854;9.158;2024-01-07T07:47:55;3.40;99.90
14016;DHT22;7083;48.854;9.158;2024-01-07T07:50:24;3.40;99.90
14016;DHT22;7083;48.854;9.158;2024-01-07T07:52:50;3.50;99.90
14016;DHT22;7083;48.854;9.158;2024-01-07T07:55:18;3.50;99.90
14016;DHT22;7083;48.854;9.158;2024-01-07T07:57:45;3.50;99.90
14016;DHT22;7083;48.854;9.158;2024-01-07T08:00:13;3.50;99.90
14016;DHT22;7083;48.854;9.158;2024-01-07T08:02:40;3.40;99.90
14016;DHT22;7083;48.854;9.158;2024-01-07T08:05:07;3.40;99.90
14016;DHT22;7083;48.854;9.158;2024-01-07T08:07:35;3.50;99.90
14016;DHT22;7083;48.854;9.158;2024-01-07T08:10:03;3.50;99.90
14016;DHT22;7083;48.854;9.158;2024-01-07T08:12:29;3.40;99.90
14016;DHT22;7083;48.854;9.158;2024-01-07T08:14:56;3.50;99.90
14016;DHT22;7083;48.854;9.158;2024-01-07T08:17:23;3.50;99.90
14016;DHT22;7083;48.854;9.158;2024-01-07T08:19:49;3.50;99.90
14016;DHT22;7083;48.854;9.158;2024-01-07T08:22:17;3.50;99.90
14016;DHT22;7083;48.854;9.158;2024-01-07T08:24:46;3.50;99.90
14016;DHT22;7083;48.854;9.158;2024-01-07T08:27:12;3.50;99.90
14016;DHT22;7083;48.854;9.158;2024-01-07T08:29:41;3.50;99.90
14016;DHT22;7083;48.854;9.158;2024-01-07T08:32:09;3.50;99.90
14016;DHT22;7083;48.854;9.158;2024-01-07T08:34:37;3.60;99.90
14016;DHT22;7083;48.854;9.158;2024-01-07T08:37:04;3.50;99.90
14016;DHT22;7083;48.854;9.158;2024-01-07T08:39:31;3.50;99.90
14016;DHT22;7083;48.854;9.158;2024-01-07T08:41:59;3.50;99.90
14016;DHT22;7083;48.854;9.158;2024-01-07T08:44:25;3.50;99.90
14016;DHT22;7083;48.854;9.158;2024-01-07T08:46:52;3.60;99.90
14016;DHT22;7083;48.854;9.158;2024-01-07T08:49:19;3.50;99.90
14016;DHT22;7083;48.854;9.158;2024-01-07T08:51:45;3.50;99.90
14016;DHT22;7083;48.854;9.158;2024-01-07T08:54:12;3.60;99.90
14016;DHT22;7083;48.854;9.158;2024-01-07T08:56:39;3.60;99.90
14016;DHT22;7083;48.854;9.158;2024-01-07T08:59:07;3.60;99.90
14016;DHT22;7083;48.854;9.158;2024-01-07T09:01:34;3.60;99.90
14016;DHT22;7083;48.854;9.158;2024-01-07T09:04:01;5.10;99.90
14016;DHT22;7083;48.854;9.158;2024-01-07T09:06:28;3.70;99.90
14016;DHT22;7083;48.854;9.158;2024-01-07T09:08:54;3.80;99.90
14016;DHT22;7083;48.854;9.158;2024-01-07T09:11:21;3.80;99.90
14016;DHT22;7083;48.854;9.158;2024-01-07T09:13:49;3.90;99.90
14016;DHT22;7083;48.854;9.158;2024-01-07T09:16:17;4.00;99.90
14016;DHT22;7083;48.854;9.158;2024-01-07T09:18:44;4.00;99.90
14016;DHT22;7083;48.854;9.158;2024-01-07T09:21:10;4.10;99.90
14016;DHT22;7083;48.854;9.158;2024-01-07T09:23:38;4.20;99.90
14016;DHT22;7083;48.854;9.158;2024-01-07T09:26:04;4.20;99.90
14016;DHT22;7083;48.854;9.158;2024-01-07T09:28:31;4.20;99.90
14016;DHT22;7083;48.854;9.158;2024-01-07T09:30:58;4.20;99.90
14016;DHT22;7083;48.854;9.158;2024-01-07T09:33:26;4.20;99.90
14016;DHT22;7083;48.854;9.158;2024-01-07T09:35:53;4.20;99.90
14016;DHT22;7083;48.854;9.158;2024-01-07T09:38:20;4.20;99.90
14016;DHT22;7083;48.854;9.158;2024-01-07T09:40:47;4.10;99.90
14016;DHT22;7083;48.854;9.158;2024-01-07T09:43:13;4.10;99.90
14016;DHT22;7083;48.854;9.158;2024-01-07T09:45:42;4.10;99.90
14016;DHT22;7083;48.854;9.158;2024-01-07T09:48:12;4.10;99.90
14016;DHT22;7083;48.854;9.158;2024-01-07T09:50:40;4.10;99.90
14016;DHT22;7083;48.854;9.158;2024-01-07T09:53:07;4.10;99.90
14016;DHT22;7083;48.854;9.158;2024-01-07T09:55:43;4.10;99.90
14016;DHT22;7083;48.854;9.158;2024-01-07T09:58:14;4.10;99.90
14016;DHT22;7083;48.854;9.158;2024-01-07T10:00:40;4.10;99.90
14016;DHT22;7083;48.854;9.158;2024-01-07T10:03:07;4.10;99.90
14016;DHT22;7083;48.854;9.158;2024-01-07T10:05:34;4.10;99.90
14016;DHT22;7083;48.854;9.158;2024-01-07T10:08:02;4.10;99.90
14016;DHT22;7083;48.854;9.158;2024-01-07T10:10:28;4.10;99.90
14016;DHT22;7083;48.854;9.158;2024-01-07T10:12:56;4.00;99.90
14016;DHT22;7083;48.854;9.158;2024-01-07T10:15:23;3.90;99.90
14016;DHT22;7083;48.854;9.158;2024-01-07T10:17:54;3.80;99.90
14016;DHT22;7083;48.854;9.158;2024-01-07T10:20:21;3.80;99.90
14016;DHT22;7083;48.854;9.158;2024-01-07T10:22:50;3.70;99.90
14016;DHT22;7083;48.854;9.158;2024-01-07T10:25:18;3.70;99.90
14016;DHT22;7083;48.854;9.158;2024-01-07T10:27:45;3.70;99.90
14016;DHT22;7083;48.854;9.158;2024-01-07T10:30:13;3.80;99.90
14016;DHT22;7083;48.854;9.158;2024-01-07T10:32:42;3.70;99.90
14016;DHT22;7083;48.854;9.158;2024-01-07T10:35:12;3.80;99.90
14016;DHT22;7083;48.854;9.158;2024-01-07T10:37:39;3.90;99.90
14016;DHT22;7083;48.854;9.158;2024-01-07T10:40:07;4.00;99.90
14016;DHT22;7083;48.854;9.158;2024-01-07T10:42:36;4.00;99.90
14016;DHT22;7083;48.854;9.158;2024-01-07T10:45:05;4.10;99.90
14016;DHT22;7083;48.854;9.158;2024-01-07T10:47:34;4.10;99.90
14016;DHT22;7083;48.854;9.158;2024-01-07T10:50:03;4.10;99.90
14016;DHT22;7083;48.854;9.158;2024-01-07T10:52:33;4.10;99.90
14016;DHT22;7083;48.854;9.158;2024-01-07T10:55:08;4.00;99.90
14016;DHT22;7083;48.854;9.158;2024-01-07T10:57:43;4.00;99.90
14016;DHT22;7083;48.854;9.158;2024-01-07T11:00:11;4.00;99.90
14016;DHT22;7083;48.854;9.158;2024-01-07T11:02:50;4.00;99.90
14016;DHT22;7083;48.854;9.158;2024-01-07T11:05:27;4.00;99.90
14016;DHT22;7083;48.854;9.158;2024-01-07T11:08:00;4.00;99.90
14016;DHT22;7083;48.854;9.158;2024-01-07T11:10:34;3.90;99.90
14016;DHT22;7083;48.854;9.158;2024-01-07T11:13:05;3.90;99.90
14016;DHT22;7083;48.854;9.158;2024-01-07T11:15:51;4.00;99.90
14016;DHT22;7083;48.854;9.158;2024-01-07T11:18:18;3.90;99.90
14016;DHT22;7083;48.854;9.158;2024-01-07T11:20:45;3.80;99.90
14016;DHT22;7083;48.854;9.158;2024-01-07T11:23:26;3.90;99.90
14016;DHT22;7083;48.854;9.158;2024-01-07T11:25:55;3.90;99.90
14016;DHT22;7083;48.854;9.158;2024-01-07T11:28:42;3.80;99.90
14016;DHT22;7083;48.854;9.158;2024-01-07T11:31:09;3.80;99.90
14016;DHT22;7083;48.854;9.158;2024-01-07T11:33:36;3.80;99.90
14016;DHT22;7083;48.854;9.158;2024-01-07T11:36:04;3.80;99.90
14016;DHT22;7083;48.854;9.158;2024-01-07T11:38:31;3.80;99.90
14016;DHT22;7083;48.854;9.158;2024-01-07T11:40:58;3.80;99.90
14016;DHT22;7083;48.854;9.158;2024-01-07T11:43:25;3.70;99.90
14016;DHT22;7083;48.854;9.158;2024-01-07T11:45:53;3.60;99.90
14016;DHT22;7083;48.854;9.158;2024-01-07T11:48:21;3.60;99.90
14016;DHT22;7083;48.854;9.158;2024-01-07T11:50:47;3.70;99.90
14016;DHT22;7083;48.854;9.158;2024-01-07T11:53:14;3.70;99.90
14016;DHT22;7083;48.854;9.158;2024-01-07T11:55:42;3.70;99.90
14016;DHT22;7083;48.854;9.158;2024-01-07T11:58:08;3.60;99.90
14016;DHT22;7083;48.854;9.158;2024-01-07T12:00:35;3.60;99.90
14016;DHT22;7083;48.854;9.158;2024-01-07T12:03:04;3.60;99.90
14016;DHT22;7083;48.854;9.158;2024-01-07T12:05:31;3.40;99.90
14016;DHT22;7083;48.854;9.158;2024-01-07T12:07:57;3.30;99.90
14016;DHT22;7083;48.854;9.158;2024-01-07T12:10:26;3.20;99.90
14016;DHT22;7083;48.854;9.158;2024-01-07T12:12:54;3.00;99.90
14016;DHT22;7083;48.854;9.158;2024-01-07T12:15:21;2.90;99.90
14016;DHT22;7083;48.854;9.158;2024-01-07T12:17:55;2.90;99.90
14016;DHT22;7083;48.854;9.158;2024-01-07T12:20:24;2.80;99.90
14016;DHT22;7083;48.854;9.158;2024-01-07T12:22:51;2.80;99.90
14016;DHT22;7083;48.854;9.158;2024-01-07T12:25:21;2.80;99.90
14016;DHT22;7083;48.854;9.158;2024-01-07T12:27:49;2.70;99.90
14016;DHT22;7083;48.854;9.158;2024-01-07T12:30:18;2.70;99.90
14016;DHT22;7083;48.854;9.158;2024-01-07T12:32:45;2.70;99.90
14016;DHT22;7083;48.854;9.158;2024-01-07T12:35:12;2.60;99.90
14016;DHT22;7083;48.854;9.158;2024-01-07T12:37:42;2.70;99.90
14016;DHT22;7083;48.854;9.158;2024-01-07T12:40:10;2.60;99.90
14016;DHT22;7083;48.854;9.158;2024-01-07T12:42:37;2.50;99.90
14016;DHT22;7083;48.854;9.158;2024-01-07T12:45:06;2.50;99.90
14016;DHT22;7083;48.854;9.158;2024-01-07T12:47:34;2.50;99.90
14016;DHT22;7083;48.854;9.158;2024-01-07T12:50:01;2.50;99.90
14016;DHT22;7083;48.854;9.158;2024-01-07T12:52:28;2.40;99.90
14016;DHT22;7083;48.854;9.158;2024-01-07T12:54:56;2.40;99.90
14016;DHT22;7083;48.854;9.158;2024-01-07T12:57:23;2.40;99.90
14016;DHT22;7083;48.854;9.158;2024-01-07T12:59:50;2.40;99.90
14016;DHT22;7083;48.854;9.158;2024-01-07T13:02:16;2.40;99.90
14016;DHT22;7083;48.854;9.158;2024-01-07T13:04:44;2.40;99.90
14016;DHT22;7083;48.854;9.158;2024-01-07T13:07:10;2.40;99.90
14016;DHT22;7083;48.854;9.158;2024-01-07T13:09:37;2.30;99.90
14016;DHT22;7083;48.854;9.158;2024-01-07T13:12:05;2.30;99.90
14016;DHT22;7083;48.854;9.158;2024-01-07T13:14:32;2.20;99.90
14016;DHT22;7083;48.854;9.158;2024-01-07T13:16:59;2.20;99.90
14016;DHT22;7083;48.854;9.158;2024-01-07T13:19:25;2.30;99.90
14016;DHT22;7083;48.854;9.158;2024-01-07T13:21:52;2.20;99.90
14016;DHT22;7083;48.854;9.158;2024-01-07T13:24:20;2.20;99.90
14016;DHT22;7083;48.854;9.158;2024-01-07T13:26:47;2.30;99.90
14016;DHT22;7083;48.854;9.158;2024-01-07T13:29:15;2.30;99.90
14016;DHT22;7083;48.854;9.158;2024-01-07T13:31:42;2.20;99.90
14016;DHT22;7083;48.854;9.158;2024-01-07T13:34:09;2.30;99.90
14016;DHT22;7083;48.854;9.158;2024-01-07T13:36:36;2.30;99.90
14016;DHT22;7083;48.854;9.158;2024-01-07T13:39:03;2.20;99.90
14016;DHT22;7083;48.854;9.158;2024-01-07T13:41:32;2.20;99.90
14016;DHT22;7083;48.854;9.158;2024-01-07T13:43:59;2.30;99.90
14016;DHT22;7083;48.854;9.158;2024-01-07T13:46:27;2.20;99.90
14016;DHT22;7083;48.854;9.158;2024-01-07T13:48:54;2.20;99.90
14016;DHT22;7083;48.854;9.158;2024-01-07T13:51:21;2.20;99.90
14016;DHT22;7083;48.854;9.158;2024-01-07T13:53:47;2.20;99.90
14016;DHT22;7083;48.854;9.158;2024-01-07T13:56:14;2.20;99.90
14016;DHT22;7083;48.854;9.158;2024-01-07T13:58:41;2.30;99.90
14016;DHT22;7083;48.854;9.158;2024-01-07T14:01:08;2.30;99.90
14016;DHT22;7083;48.854;9.158;2024-01-07T14:03:36;2.30;99.90
14016;DHT22;7083;48.854;9.158;2024-01-07T14:06:03;2.30;99.90
14016;DHT22;7083;48.854;9.158;2024-01-07T14:08:31;2.30;99.90
14016;DHT22;7083;48.854;9.158;2024-01-07T14:10:58;2.30;99.90
14016;DHT22;7083;48.854;9.158;2024-01-07T14:13:26;2.20;99.90
14016;DHT22;7083;48.854;9.158;2024-01-07T14:15:53;2.20;99.90
14016;DHT22;7083;48.854;9.158;2024-01-07T14:18:20;2.30;99.90
14016;DHT22;7083;48.854;9.158;2024-01-07T14:20:49;2.20;99.90
14016;DHT22;7083;48.854;9.158;2024-01-07T14:23:16;2.10;99.90
14016;DHT22;7083;48.854;9.158;2024-01-07T14:25:43;2.20;99.90
14016;DHT22;7083;48.854;9.158;2024-01-07T14:28:10;2.10;99.90
14016;DHT22;7083;48.854;9.158;2024-01-07T14:30:36;2.10;99.90
14016;DHT22;7083;48.854;9.158;2024-01-07T14:33:04;2.10;99.90
14016;DHT22;7083;48.854;9.158;2024-01-07T14:35:30;2.10;99.90
14016;DHT22;7083;48.854;9.158;2024-01-07T14:38:00;2.00;99.90
14016;DHT22;7083;48.854;9.158;2024-01-07T14:40:27;2.00;99.90
14016;DHT22;7083;48.854;9.158;2024-01-07T14:42:53;2.00;99.90
14016;DHT22;7083;48.854;9.158;2024-01-07T14:45:23;2.00;99.90
14016;DHT22;7083;48.854;9.158;2024-01-07T14:47:50;2.00;99.90
14016;DHT22;7083;48.854;9.158;2024-01-07T14:50:17;1.90;99.90
14016;DHT22;7083;48.854;9.158;2024-01-07T14:52:44;1.90;99.90
14016;DHT22;7083;48.854;9.158;2024-01-07T14:55:13;1.90;99.90
14016;DHT22;7083;48.854;9.158;2024-01-07T14:57:40;1.80;99.90
14016;DHT22;7083;48.854;9.158;2024-01-07T15:00:07;1.60;99.90
14016;DHT22;7083;48.854;9.158;2024-01-07T15:02:34;1.70;99.90
14016;DHT22;7083;48.854;9.158;2024-01-07T15:05:01;1.60;99.90
14016;DHT22;7083;48.854;9.158;2024-01-07T15:07:28;1.60;99.90
14016;DHT22;7083;48.854;9.158;2024-01-07T15:09:55;1.50;99.90
14016;DHT22;7083;48.854;9.158;2024-01-07T15:12:23;1.50;99.90
14016;DHT22;7083;48.854;9.158;2024-01-07T15:14:50;1.50;99.90
14016;DHT22;7083;48.854;9.158;2024-01-07T15:17:17;1.70;99.90
14016;DHT22;7083;48.854;9.158;2024-01-07T15:19:44;1.50;99.90
14016;DHT22;7083;48.854;9.158;2024-01-07T15:22:11;1.50;99.90
14016;DHT22;7083;48.854;9.158;2024-01-07T15:24:38;1.40;99.90
14016;DHT22;7083;48.854;9.158;2024-01-07T15:27:05;1.40;99.90
14016;DHT22;7083;48.854;9.158;2024-01-07T15:29:33;1.30;99.90
14016;DHT22;7083;48.854;9.158;2024-01-07T15:32:00;1.30;99.90
14016;DHT22;7083;48.854;9.158;2024-01-07T15:34:26;1.30;99.90
14016;DHT22;7083;48.854;9.158;2024-01-07T15:36:53;1.20;99.90
14016;DHT22;7083;48.854;9.158;2024-01-07T15:39:19;1.30;99.90
14016;DHT22;7083;48.854;9.158;2024-01-07T15:41:46;1.20;99.90
14016;DHT22;7083;48.854;9.158;2024-01-07T15:44:13;1.10;99.90
14016;DHT22;7083;48.854;9.158;2024-01-07T15:46:41;1.00;99.90
14016;DHT22;7083;48.854;9.158;2024-01-07T15:49:07;2.10;99.90
14016;DHT22;7083;48.854;9.158;2024-01-07T15:51:34;1.00;99.90
14016;DHT22;7083;48.854;9.158;2024-01-07T15:54:01;1.00;99.90
14016;DHT22;7083;48.854;9.158;2024-01-07T15:56:27;0.90;99.90
14016;DHT22;7083;48.854;9.158;2024-01-07T15:58:54;0.90;99.90
14016;DHT22;7083;48.854;9.158;2024-01-07T16:01:21;0.80;99.90
14016;DHT22;7083;48.854;9.158;2024-01-07T16:03:49;0.80;99.90